Manhattan, Kansas
Current Conditions -  °F | °C
As of 7:52 AM on Saturday 20 Dec 2014 (Local Time) from KMHK Reporting Station
Haze Haze  
Wind Chill: 24°   Ceiling: Unl
Heat Index: 33°   Visibility: 4mi
Dew Point: 31°   Wind: 13mph
Humidity: 92%   Direction: 220°SW
Pressure: 30.13"   Gusts: NA
Location:  39.18°N, 96.56°W
Report Text: KMHK 201352Z 22011KT 4SM BR CLR 01/M01 A3013 RMK AO2 SLP211 T00061006
Loading
Personal Weather Stations






























Interactive Weather Map New forecast layout! Learn more

10-Day Weather Forecast

Advertisements
Track Severe Weather on mobile